sensor_id;sensor_type;location;lat;lon;timestamp;pressure;altitude;pressure_sealevel;temperature;humidity
80188;BME280;73735;52.134;5.436;2024-02-21T00:01:16;102316.88;;;9.59;84.30
80188;BME280;73735;52.134;5.436;2024-02-21T00:03:43;102313.41;;;9.59;84.34
80188;BME280;73735;52.134;5.436;2024-02-21T00:06:09;102309.06;;;9.58;84.15
80188;BME280;73735;52.134;5.436;2024-02-21T00:08:36;102301.19;;;9.58;84.23
80188;BME280;73735;52.134;5.436;2024-02-21T00:11:03;102297.78;;;9.55;84.09
80188;BME280;73735;52.134;5.436;2024-02-21T00:13:30;102287.31;;;9.54;84.34
80188;BME280;73735;52.134;5.436;2024-02-21T00:15:56;102276.88;;;9.52;84.29
80188;BME280;73735;52.134;5.436;2024-02-21T00:18:23;102274.34;;;9.51;84.17
80188;BME280;73735;52.134;5.436;2024-02-21T00:20:55;102269.06;;;9.51;84.28
80188;BME280;73735;52.134;5.436;2024-02-21T00:23:22;102275.19;;;9.51;84.16
80188;BME280;73735;52.134;5.436;2024-02-21T00:25:48;102277.81;;;9.51;84.22
80188;BME280;73735;52.134;5.436;2024-02-21T00:28:15;102283.06;;;9.51;84.33
80188;BME280;73735;52.134;5.436;2024-02-21T00:30:42;102283.06;;;9.51;84.00
80188;BME280;73735;52.134;5.436;2024-02-21T00:33:08;102276.88;;;9.52;84.27
80188;BME280;73735;52.134;5.436;2024-02-21T00:35:35;102271.69;;;9.51;84.28
80188;BME280;73735;52.134;5.436;2024-02-21T00:38:01;102278.66;;;9.52;84.27
80188;BME280;73735;52.134;5.436;2024-02-21T00:40:29;102269.00;;;9.52;84.39
80188;BME280;73735;52.134;5.436;2024-02-21T00:42:56;102265.44;;;9.53;84.23
80188;BME280;73735;52.134;5.436;2024-02-21T00:45:23;102269.84;;;9.53;84.04
80188;BME280;73735;52.134;5.436;2024-02-21T00:47:49;102265.53;;;9.52;84.50
80188;BME280;73735;52.134;5.436;2024-02-21T00:50:16;102265.53;;;9.52;84.42
80188;BME280;73735;52.134;5.436;2024-02-21T00:52:42;102278.66;;;9.52;84.25
80188;BME280;73735;52.134;5.436;2024-02-21T00:55:10;102280.44;;;9.51;84.53
80188;BME280;73735;52.134;5.436;2024-02-21T00:57:37;102274.25;;;9.52;84.65
80188;BME280;73735;52.134;5.436;2024-02-21T01:00:03;102288.31;;;9.51;84.57
80188;BME280;73735;52.134;5.436;2024-02-21T01:02:30;102287.31;;;9.54;84.56
80188;BME280;73735;52.134;5.436;2024-02-21T01:05:00;102297.00;;;9.53;84.62
80188;BME280;73735;52.134;5.436;2024-02-21T01:07:26;102303.94;;;9.54;84.82
80188;BME280;73735;52.134;5.436;2024-02-21T01:09:53;102297.00;;;9.53;84.61
80188;BME280;73735;52.134;5.436;2024-02-21T01:12:19;102296.00;;;9.56;84.76
80188;BME280;73735;52.134;5.436;2024-02-21T01:14:46;102295.13;;;9.55;84.67
80188;BME280;73735;52.134;5.436;2024-02-21T01:17:13;102289.88;;;9.55;84.57
80188;BME280;73735;52.134;5.436;2024-02-21T01:19:39;102278.59;;;9.53;84.40
80188;BME280;73735;52.134;5.436;2024-02-21T01:22:06;102281.22;;;9.53;84.59
80188;BME280;73735;52.134;5.436;2024-02-21T01:24:33;102283.84;;;9.53;84.46
80188;BME280;73735;52.134;5.436;2024-02-21T01:26:59;102284.84;;;9.51;84.41
80188;BME280;73735;52.134;5.436;2024-02-21T01:29:26;102276.03;;;9.52;84.44
80188;BME280;73735;52.134;5.436;2024-02-21T01:31:52;102264.59;;;9.53;84.49
80188;BME280;73735;52.134;5.436;2024-02-21T01:34:19;102261.88;;;9.54;84.35
80188;BME280;73735;52.134;5.436;2024-02-21T01:36:45;102257.47;;;9.55;84.53
80188;BME280;73735;52.134;5.436;2024-02-21T01:39:12;102255.84;;;9.52;84.59
80188;BME280;73735;52.134;5.436;2024-02-21T01:41:38;102254.94;;;9.53;84.43
80188;BME280;73735;52.134;5.436;2024-02-21T01:44:05;102255.78;;;9.54;84.52
80188;BME280;73735;52.134;5.436;2024-02-21T01:46:31;102246.13;;;9.54;84.43
80188;BME280;73735;52.134;5.436;2024-02-21T01:48:58;102240.84;;;9.54;84.50
80188;BME280;73735;52.134;5.436;2024-02-21T01:51:26;102234.81;;;9.52;84.63
80188;BME280;73735;52.134;5.436;2024-02-21T01:53:53;102233.13;;;9.51;84.26
80188;BME280;73735;52.134;5.436;2024-02-21T01:56:22;102226.09;;;9.52;84.28
80188;BME280;73735;52.134;5.436;2024-02-21T01:58:49;102231.34;;;9.52;84.24
80188;BME280;73735;52.134;5.436;2024-02-21T02:01:16;102234.81;;;9.52;84.38
80188;BME280;73735;52.134;5.436;2024-02-21T02:03:47;102224.31;;;9.52;84.34
80188;BME280;73735;52.134;5.436;2024-02-21T02:06:15;102227.88;;;9.51;84.20
80188;BME280;73735;52.134;5.436;2024-02-21T02:08:42;102230.50;;;9.51;84.43
80188;BME280;73735;52.134;5.436;2024-02-21T02:11:09;102212.94;;;9.52;84.36
80188;BME280;73735;52.134;5.436;2024-02-21T02:13:36;102213.78;;;9.52;84.32
80188;BME280;73735;52.134;5.436;2024-02-21T02:16:02;102206.84;;;9.51;84.14
80188;BME280;73735;52.134;5.436;2024-02-21T02:18:30;102200.66;;;9.52;84.30
80188;BME280;73735;52.134;5.436;2024-02-21T02:20:57;102202.50;;;9.50;84.28
80188;BME280;73735;52.134;5.436;2024-02-21T02:23:30;102190.31;;;9.49;84.30
80188;BME280;73735;52.134;5.436;2024-02-21T02:26:00;102195.56;;;9.49;84.37
80188;BME280;73735;52.134;5.436;2024-02-21T02:28:29;102191.13;;;9.50;84.26
80188;BME280;73735;52.134;5.436;2024-02-21T02:30:56;102181.66;;;9.47;84.28
80188;BME280;73735;52.134;5.436;2024-02-21T02:33:22;102188.69;;;9.47;84.14
80188;BME280;73735;52.134;5.436;2024-02-21T02:35:49;102191.25;;;9.48;84.23
80188;BME280;73735;52.134;5.436;2024-02-21T02:38:16;102193.03;;;9.48;84.35
80188;BME280;73735;52.134;5.436;2024-02-21T02:40:43;102182.50;;;9.48;84.19
80188;BME280;73735;52.134;5.436;2024-02-21T02:43:09;102180.72;;;9.48;84.17
80188;BME280;73735;52.134;5.436;2024-02-21T02:45:36;102182.59;;;9.46;84.05
80188;BME280;73735;52.134;5.436;2024-02-21T02:48:03;102185.97;;;9.48;84.23
80188;BME280;73735;52.134;5.436;2024-02-21T02:50:30;102178.09;;;9.48;84.15
80188;BME280;73735;52.134;5.436;2024-02-21T02:52:57;102179.88;;;9.48;84.25
80188;BME280;73735;52.134;5.436;2024-02-21T02:55:23;102185.06;;;9.49;84.19
80188;BME280;73735;52.134;5.436;2024-02-21T02:57:50;102178.84;;;9.50;84.35
80188;BME280;73735;52.134;5.436;2024-02-21T03:00:16;102170.09;;;9.50;84.32
80188;BME280;73735;52.134;5.436;2024-02-21T03:02:46;102168.44;;;9.49;84.33
80188;BME280;73735;52.134;5.436;2024-02-21T03:05:20;102150.13;;;9.47;84.42
80188;BME280;73735;52.134;5.436;2024-02-21T03:07:48;102156.22;;;9.48;84.56
80188;BME280;73735;52.134;5.436;2024-02-21T03:10:15;102158.84;;;9.48;84.32
80188;BME280;73735;52.134;5.436;2024-02-21T03:12:46;102150.97;;;9.48;84.36
80188;BME280;73735;52.134;5.436;2024-02-21T03:15:13;102149.25;;;9.47;84.40
80188;BME280;73735;52.134;5.436;2024-02-21T03:17:41;102144.94;;;9.46;84.41
80188;BME280;73735;52.134;5.436;2024-02-21T03:20:08;102142.47;;;9.43;84.31
80188;BME280;73735;52.134;5.436;2024-02-21T03:22:38;102150.34;;;9.43;84.22
80188;BME280;73735;52.134;5.436;2024-02-21T03:25:05;102139.75;;;9.44;84.44
80188;BME280;73735;52.134;5.436;2024-02-21T03:27:33;102141.59;;;9.42;84.47
80188;BME280;73735;52.134;5.436;2024-02-21T03:29:59;102131.09;;;9.42;84.57
80188;BME280;73735;52.134;5.436;2024-02-21T03:32:26;102132.03;;;9.41;84.49
80188;BME280;73735;52.134;5.436;2024-02-21T03:34:54;102117.19;;;9.40;84.56
80188;BME280;73735;52.134;5.436;2024-02-21T03:37:21;102114.47;;;9.42;84.77
80188;BME280;73735;52.134;5.436;2024-02-21T03:39:47;102109.28;;;9.40;84.71
80188;BME280;73735;52.134;5.436;2024-02-21T03:42:14;102105.66;;;9.43;84.53
80188;BME280;73735;52.134;5.436;2024-02-21T03:44:40;102096.16;;;9.40;84.45
80188;BME280;73735;52.134;5.436;2024-02-21T03:47:07;102100.56;;;9.40;84.68
80188;BME280;73735;52.134;5.436;2024-02-21T03:49:37;102097.94;;;9.40;84.60
80188;BME280;73735;52.134;5.436;2024-02-21T03:52:04;102095.22;;;9.41;84.71
80188;BME280;73735;52.134;5.436;2024-02-21T03:54:30;102103.19;;;9.40;84.59
80188;BME280;73735;52.134;5.436;2024-02-21T03:56:57;102098.78;;;9.40;84.62
80188;BME280;73735;52.134;5.436;2024-02-21T03:59:23;102093.59;;;9.39;84.62
80188;BME280;73735;52.134;5.436;2024-02-21T04:01:52;102096.38;;;9.36;84.50
80188;BME280;73735;52.134;5.436;2024-02-21T04:04:20;102094.78;;;9.33;84.56
80188;BME280;73735;52.134;5.436;2024-02-21T04:06:50;102099.00;;;9.36;84.63
80188;BME280;73735;52.134;5.436;2024-02-21T04:09:17;102105.03;;;9.38;84.77
80188;BME280;73735;52.134;5.436;2024-02-21T04:11:44;102093.59;;;9.39;84.48
80188;BME280;73735;52.134;5.436;2024-02-21T04:14:11;102097.34;;;9.35;84.55
80188;BME280;73735;52.134;5.436;2024-02-21T04:16:38;102098.16;;;9.35;84.52
80188;BME280;73735;52.134;5.436;2024-02-21T04:19:05;102086.84;;;9.35;84.35
80188;BME280;73735;52.134;5.436;2024-02-21T04:21:31;102082.50;;;9.34;84.72
80188;BME280;73735;52.134;5.436;2024-02-21T04:23:58;102072.84;;;9.34;84.52
80188;BME280;73735;52.134;5.436;2024-02-21T04:26:25;102072.84;;;9.34;84.41
80188;BME280;73735;52.134;5.436;2024-02-21T04:28:51;102078.00;;;9.36;84.37
80188;BME280;73735;52.134;5.436;2024-02-21T04:31:18;102074.63;;;9.34;84.38
80188;BME280;73735;52.134;5.436;2024-02-21T04:33:44;102070.28;;;9.33;84.33
80188;BME280;73735;52.134;5.436;2024-02-21T04:36:11;102073.94;;;9.30;84.68
80188;BME280;73735;52.134;5.436;2024-02-21T04:38:37;102062.50;;;9.31;84.45
80188;BME280;73735;52.134;5.436;2024-02-21T04:41:05;102069.53;;;9.31;84.47
80188;BME280;73735;52.134;5.436;2024-02-21T04:43:32;102065.97;;;9.32;84.37
80188;BME280;73735;52.134;5.436;2024-02-21T04:45:58;102066.81;;;9.32;84.41
80188;BME280;73735;52.134;5.436;2024-02-21T04:48:25;102051.13;;;9.31;84.41
80188;BME280;73735;52.134;5.436;2024-02-21T04:50:52;102042.47;;;9.29;84.23
80188;BME280;73735;52.134;5.436;2024-02-21T04:53:18;102040.69;;;9.29;84.30
80188;BME280;73735;52.134;5.436;2024-02-21T04:55:44;102042.47;;;9.29;84.35
80188;BME280;73735;52.134;5.436;2024-02-21T04:58:11;102042.47;;;9.29;84.19
80188;BME280;73735;52.134;5.436;2024-02-21T05:00:38;102052.13;;;9.28;84.30
80188;BME280;73735;52.134;5.436;2024-02-21T05:03:05;102045.09;;;9.29;84.23
80188;BME280;73735;52.134;5.436;2024-02-21T05:05:31;102048.59;;;9.29;84.24
80188;BME280;73735;52.134;5.436;2024-02-21T05:07:58;102044.25;;;9.28;84.33
80188;BME280;73735;52.134;5.436;2024-02-21T05:10:24;102047.81;;;9.27;83.96
80188;BME280;73735;52.134;5.436;2024-02-21T05:12:51;102036.38;;;9.28;84.33
80188;BME280;73735;52.134;5.436;2024-02-21T05:15:17;102048.66;;;9.28;84.19
80188;BME280;73735;52.134;5.436;2024-02-21T05:17:44;102032.19;;;9.24;84.20
80188;BME280;73735;52.134;5.436;2024-02-21T05:20:11;102026.78;;;9.27;84.27
80188;BME280;73735;52.134;5.436;2024-02-21T05:22:38;102023.22;;;9.28;84.40
80188;BME280;73735;52.134;5.436;2024-02-21T05:25:04;102017.97;;;9.28;84.29
80188;BME280;73735;52.134;5.436;2024-02-21T05:27:32;102017.97;;;9.28;84.25
80188;BME280;73735;52.134;5.436;2024-02-21T05:29:59;102017.03;;;9.29;84.35
80188;BME280;73735;52.134;5.436;2024-02-21T05:32:26;102005.59;;;9.30;84.41
80188;BME280;73735;52.134;5.436;2024-02-21T05:34:52;102003.91;;;9.29;84.33
80188;BME280;73735;52.134;5.436;2024-02-21T05:37:19;101995.94;;;9.31;84.15
80188;BME280;73735;52.134;5.436;2024-02-21T05:39:46;101989.84;;;9.30;84.19
80188;BME280;73735;52.134;5.436;2024-02-21T05:42:12;101983.81;;;9.28;84.17
80188;BME280;73735;52.134;5.436;2024-02-21T05:44:39;101990.00;;;9.27;84.19
80188;BME280;73735;52.134;5.436;2024-02-21T05:47:05;101988.38;;;9.25;84.20
80188;BME280;73735;52.134;5.436;2024-02-21T05:49:36;101977.72;;;9.28;84.29
80188;BME280;73735;52.134;5.436;2024-02-21T05:52:03;101967.34;;;9.25;84.20
80188;BME280;73735;52.134;5.436;2024-02-21T05:54:30;101960.41;;;9.24;84.09
80188;BME280;73735;52.134;5.436;2024-02-21T05:56:56;101963.88;;;9.24;84.23
80188;BME280;73735;52.134;5.436;2024-02-21T05:59:23;101964.81;;;9.23;84.16
80188;BME280;73735;52.134;5.436;2024-02-21T06:01:57;101959.56;;;9.23;84.36
80188;BME280;73735;52.134;5.436;2024-02-21T06:04:24;101963.03;;;9.24;84.07
80188;BME280;73735;52.134;5.436;2024-02-21T06:06:51;101952.69;;;9.20;84.40
80188;BME280;73735;52.134;5.436;2024-02-21T06:09:17;101950.91;;;9.21;84.21
80188;BME280;73735;52.134;5.436;2024-02-21T06:11:44;101956.16;;;9.21;84.35
80188;BME280;73735;52.134;5.436;2024-02-21T06:14:12;101949.97;;;9.22;84.42
80188;BME280;73735;52.134;5.436;2024-02-21T06:16:39;101941.25;;;9.22;84.31
80188;BME280;73735;52.134;5.436;2024-02-21T06:19:06;101939.66;;;9.19;84.37
80188;BME280;73735;52.134;5.436;2024-02-21T06:21:36;101943.94;;;9.20;84.44
80188;BME280;73735;52.134;5.436;2024-02-21T06:24:03;101948.97;;;9.25;84.34
80188;BME280;73735;52.134;5.436;2024-02-21T06:26:29;101949.97;;;9.22;84.36
80188;BME280;73735;52.134;5.436;2024-02-21T06:28:56;101953.53;;;9.21;84.49
80188;BME280;73735;52.134;5.436;2024-02-21T06:31:23;101957.19;;;9.18;84.37
80188;BME280;73735;52.134;5.436;2024-02-21T06:33:50;101958.97;;;9.18;84.39
80188;BME280;73735;52.134;5.436;2024-02-21T06:36:16;101965.31;;;9.14;84.59
80188;BME280;73735;52.134;5.436;2024-02-21T06:38:43;101964.56;;;9.12;84.42
80188;BME280;73735;52.134;5.436;2024-02-21T06:41:16;101953.88;;;9.15;84.58
80188;BME280;73735;52.134;5.436;2024-02-21T06:43:45;101961.94;;;9.12;84.54
80188;BME280;73735;52.134;5.436;2024-02-21T06:46:23;101963.00;;;9.08;84.57
80188;BME280;73735;52.134;5.436;2024-02-21T06:48:49;101965.84;;;9.05;84.76
80188;BME280;73735;52.134;5.436;2024-02-21T06:51:15;101961.50;;;9.04;84.63
80188;BME280;73735;52.134;5.436;2024-02-21T06:53:42;101952.84;;;9.02;84.84
80188;BME280;73735;52.134;5.436;2024-02-21T06:56:10;101950.31;;;9.00;84.89
80188;BME280;73735;52.134;5.436;2024-02-21T06:58:36;101949.31;;;9.03;84.85
80188;BME280;73735;52.134;5.436;2024-02-21T07:01:03;101948.53;;;9.01;84.85
80188;BME280;73735;52.134;5.436;2024-02-21T07:03:29;101946.00;;;8.99;84.84
80188;BME280;73735;52.134;5.436;2024-02-21T07:05:56;101940.81;;;8.98;84.98
80188;BME280;73735;52.134;5.436;2024-02-21T07:08:23;101938.34;;;8.95;85.03
80188;BME280;73735;52.134;5.436;2024-02-21T07:10:49;101945.22;;;8.97;85.00
80188;BME280;73735;52.134;5.436;2024-02-21T07:13:16;101941.66;;;8.98;85.06
80188;BME280;73735;52.134;5.436;2024-02-21T07:15:43;101938.19;;;8.98;84.92
80188;BME280;73735;52.134;5.436;2024-02-21T07:18:10;101930.38;;;8.96;84.86
80188;BME280;73735;52.134;5.436;2024-02-21T07:20:36;101924.38;;;8.94;85.03
80188;BME280;73735;52.134;5.436;2024-02-21T07:23:03;101918.94;;;8.97;85.08
80188;BME280;73735;52.134;5.436;2024-02-21T07:25:30;101928.44;;;9.00;85.37
80188;BME280;73735;52.134;5.436;2024-02-21T07:27:56;101920.34;;;9.04;84.91
80188;BME280;73735;52.134;5.436;2024-02-21T07:30:23;101918.63;;;9.03;84.75
80188;BME280;73735;52.134;5.436;2024-02-21T07:32:50;101910.06;;;9.00;84.80
80188;BME280;73735;52.134;5.436;2024-02-21T07:35:17;101909.28;;;8.98;84.58
80188;BME280;73735;52.134;5.436;2024-02-21T07:37:44;101909.28;;;8.98;84.63
80188;BME280;73735;52.134;5.436;2024-02-21T07:40:14;101907.44;;;9.00;84.58
80188;BME280;73735;52.134;5.436;2024-02-21T07:42:42;101898.78;;;8.98;84.55
80188;BME280;73735;52.134;5.436;2024-02-21T07:45:12;101888.28;;;8.98;84.51
80188;BME280;73735;52.134;5.436;2024-02-21T07:47:38;101880.41;;;8.98;84.51
80188;BME280;73735;52.134;5.436;2024-02-21T07:50:05;101873.22;;;9.01;84.39
80188;BME280;73735;52.134;5.436;2024-02-21T07:52:32;101872.19;;;9.04;84.38
80188;BME280;73735;52.134;5.436;2024-02-21T07:54:58;101863.38;;;9.05;84.42
80188;BME280;73735;52.134;5.436;2024-02-21T07:57:25;101863.28;;;9.06;84.06
80188;BME280;73735;52.134;5.436;2024-02-21T07:59:51;101854.91;;;9.15;84.01
80188;BME280;73735;52.134;5.436;2024-02-21T08:02:18;101854.75;;;9.18;83.87
80188;BME280;73735;52.134;5.436;2024-02-21T08:04:45;101854.06;;;9.15;83.88
80188;BME280;73735;52.134;5.436;2024-02-21T08:07:11;101861.09;;;9.14;83.63
80188;BME280;73735;52.134;5.436;2024-02-21T08:09:39;101857.69;;;9.12;83.62
80188;BME280;73735;52.134;5.436;2024-02-21T08:12:06;101856.09;;;9.10;83.68
80188;BME280;73735;52.134;5.436;2024-02-21T08:14:33;101854.97;;;9.14;83.62
80188;BME280;73735;52.134;5.436;2024-02-21T08:16:59;101840.16;;;9.13;83.51
80188;BME280;73735;52.134;5.436;2024-02-21T08:19:26;101840.16;;;9.13;83.72
80188;BME280;73735;52.134;5.436;2024-02-21T08:21:53;101835.66;;;9.15;83.61
80188;BME280;73735;52.134;5.436;2024-02-21T08:24:19;101838.78;;;9.22;83.52
80188;BME280;73735;52.134;5.436;2024-02-21T08:26:46;101836.06;;;9.23;83.36
80188;BME280;73735;52.134;5.436;2024-02-21T08:29:12;101831.56;;;9.25;83.43
80188;BME280;73735;52.134;5.436;2024-02-21T08:31:39;101837.69;;;9.26;83.35
80188;BME280;73735;52.134;5.436;2024-02-21T08:34:06;101826.16;;;9.28;83.38
80188;BME280;73735;52.134;5.436;2024-02-21T08:36:34;101817.34;;;9.29;83.23
80188;BME280;73735;52.134;5.436;2024-02-21T08:39:02;101817.25;;;9.31;83.31
80188;BME280;73735;52.134;5.436;2024-02-21T08:41:32;101817.94;;;9.34;83.04
80188;BME280;73735;52.134;5.436;2024-02-21T08:44:17;101817.31;;;9.45;82.99
80188;BME280;73735;52.134;5.436;2024-02-21T08:46:43;101816.53;;;9.43;82.69
80188;BME280;73735;52.134;5.436;2024-02-21T08:49:10;101798.22;;;9.41;82.74
80188;BME280;73735;52.134;5.436;2024-02-21T08:51:37;101794.00;;;9.39;82.79
80188;BME280;73735;52.134;5.436;2024-02-21T08:54:03;101783.41;;;9.40;83.01
80188;BME280;73735;52.134;5.436;2024-02-21T08:56:30;101785.16;;;9.40;82.74
80188;BME280;73735;52.134;5.436;2024-02-21T08:58:57;101777.19;;;9.41;82.80
80188;BME280;73735;52.134;5.436;2024-02-21T09:01:26;101790.34;;;9.41;82.47
80188;BME280;73735;52.134;5.436;2024-02-21T09:03:53;101791.19;;;9.42;82.65
80188;BME280;73735;52.134;5.436;2024-02-21T09:06:20;101781.25;;;9.47;82.98
80188;BME280;73735;52.134;5.436;2024-02-21T09:08:46;101783.34;;;9.56;82.31
80188;BME280;73735;52.134;5.436;2024-02-21T09:11:15;101779.94;;;9.54;82.11
80188;BME280;73735;52.134;5.436;2024-02-21T09:13:42;101788.78;;;9.53;82.02
80188;BME280;73735;52.134;5.436;2024-02-21T09:16:08;101773.94;;;9.52;81.77
80188;BME280;73735;52.134;5.436;2024-02-21T09:18:35;101775.63;;;9.53;81.81
80188;BME280;73735;52.134;5.436;2024-02-21T09:21:02;101773.66;;;9.57;81.69
80188;BME280;73735;52.134;5.436;2024-02-21T09:23:28;101764.00;;;9.57;81.44
80188;BME280;73735;52.134;5.436;2024-02-21T09:25:55;101755.28;;;9.57;81.44
80188;BME280;73735;52.134;5.436;2024-02-21T09:28:22;101759.78;;;9.54;81.37
80188;BME280;73735;52.134;5.436;2024-02-21T09:30:49;101758.06;;;9.53;81.35
80188;BME280;73735;52.134;5.436;2024-02-21T09:33:15;101759.50;;;9.59;81.43
80188;BME280;73735;52.134;5.436;2024-02-21T09:35:57;101749.66;;;9.63;81.53
80188;BME280;73735;52.134;5.436;2024-02-21T09:38:23;101739.88;;;9.65;81.19
80188;BME280;73735;52.134;5.436;2024-02-21T09:40:59;101733.78;;;9.64;81.10
80188;BME280;73735;52.134;5.436;2024-02-21T09:43:29;101725.69;;;9.67;81.09
80188;BME280;73735;52.134;5.436;2024-02-21T09:45:58;101711.44;;;9.71;81.37
80188;BME280;73735;52.134;5.436;2024-02-21T09:51:14;101715.66;;;9.74;80.97
80188;BME280;73735;52.134;5.436;2024-02-21T09:53:42;101700.66;;;9.76;80.69
80188;BME280;73735;52.134;5.436;2024-02-21T09:56:20;101692.94;;;9.73;80.25
80188;BME280;73735;52.134;5.436;2024-02-21T09:58:47;101693.13;;;9.70;80.17
80188;BME280;73735;52.134;5.436;2024-02-21T10:01:13;101681.66;;;9.71;80.40
80188;BME280;73735;52.134;5.436;2024-02-21T10:03:58;101676.31;;;9.72;80.15
80188;BME280;73735;52.134;5.436;2024-02-21T10:06:25;101667.59;;;9.72;80.11
80188;BME280;73735;52.134;5.436;2024-02-21T10:08:53;101666.47;;;9.76;79.81
80188;BME280;73735;52.134;5.436;2024-02-21T10:11:25;101653.22;;;9.77;80.02
80188;BME280;73735;52.134;5.436;2024-02-21T10:14:04;101656.50;;;9.81;79.75
80188;BME280;73735;52.134;5.436;2024-02-21T10:16:31;101646.91;;;9.80;79.58
80188;BME280;73735;52.134;5.436;2024-02-21T10:18:59;101637.13;;;9.82;79.51
80188;BME280;73735;52.134;5.436;2024-02-21T10:21:26;101639.69;;;9.83;79.66
80188;BME280;73735;52.134;5.436;2024-02-21T10:23:52;101633.19;;;9.89;79.41
80188;BME280;73735;52.134;5.436;2024-02-21T10:26:19;101631.22;;;9.93;79.37
80188;BME280;73735;52.134;5.436;2024-02-21T10:28:47;101626.59;;;9.96;79.32
80188;BME280;73735;52.134;5.436;2024-02-21T10:31:22;101615.88;;;9.99;79.09
80188;BME280;73735;52.134;5.436;2024-02-21T10:36:21;101600.84;;;10.01;78.88
80188;BME280;73735;52.134;5.436;2024-02-21T10:38:48;101600.56;;;10.06;78.71
80188;BME280;73735;52.134;5.436;2024-02-21T10:41:15;101604.56;;;10.11;78.61
80188;BME280;73735;52.134;5.436;2024-02-21T10:43:49;101599.97;;;10.15;78.85
80188;BME280;73735;52.134;5.436;2024-02-21T10:46:18;101584.94;;;10.17;78.61
80188;BME280;73735;52.134;5.436;2024-02-21T10:48:46;101582.41;;;10.15;78.55
80188;BME280;73735;52.134;5.436;2024-02-21T10:51:18;101563.22;;;10.13;78.40
80188;BME280;73735;52.134;5.436;2024-02-21T10:54:09;101569.09;;;10.18;78.51
80188;BME280;73735;52.134;5.436;2024-02-21T10:56:39;101550.91;;;10.14;78.61
80188;BME280;73735;52.134;5.436;2024-02-21T10:59:08;101535.13;;;10.14;78.83
80188;BME280;73735;52.134;5.436;2024-02-21T11:01:34;101514.56;;;10.20;79.16
80188;BME280;73735;52.134;5.436;2024-02-21T11:04:06;101520.25;;;10.27;78.60
80188;BME280;73735;52.134;5.436;2024-02-21T11:06:35;101487.00;;;10.26;78.65
80188;BME280;73735;52.134;5.436;2024-02-21T11:09:04;101486.88;;;10.28;78.92
80188;BME280;73735;52.134;5.436;2024-02-21T11:11:37;101484.16;;;10.29;78.74
80188;BME280;73735;52.134;5.436;2024-02-21T11:14:09;101517.53;;;10.29;78.88
80188;BME280;73735;52.134;5.436;2024-02-21T11:16:40;101562.78;;;10.21;79.13
80188;BME280;73735;52.134;5.436;2024-02-21T11:19:30;101561.09;;;10.20;79.45
80188;BME280;73735;52.134;5.436;2024-02-21T11:21:56;101549.13;;;10.14;79.43
80188;BME280;73735;52.134;5.436;2024-02-21T11:27:14;101544.47;;;10.05;80.11
80188;BME280;73735;52.134;5.436;2024-02-21T11:29:55;101539.50;;;10.01;80.29
80188;BME280;73735;52.134;5.436;2024-02-21T11:32:22;101532.75;;;9.97;80.45
80188;BME280;73735;52.134;5.436;2024-02-21T11:35:02;101534.84;;;9.92;80.39
80188;BME280;73735;52.134;5.436;2024-02-21T11:37:35;101520.94;;;9.89;80.45
80188;BME280;73735;52.134;5.436;2024-02-21T11:40:04;101515.03;;;9.86;80.47
80188;BME280;73735;52.134;5.436;2024-02-21T11:42:33;101506.31;;;9.85;80.32
80188;BME280;73735;52.134;5.436;2024-02-21T11:45:00;101494.00;;;9.86;80.55
80188;BME280;73735;52.134;5.436;2024-02-21T11:47:30;101490.63;;;9.84;80.48
80188;BME280;73735;52.134;5.436;2024-02-21T11:49:57;101482.72;;;9.84;80.47
80188;BME280;73735;52.134;5.436;2024-02-21T11:52:25;101475.03;;;9.81;80.71
80188;BME280;73735;52.134;5.436;2024-02-21T11:54:53;101472.41;;;9.81;80.62
80188;BME280;73735;52.134;5.436;2024-02-21T11:57:21;101470.84;;;9.78;80.45
80188;BME280;73735;52.134;5.436;2024-02-21T11:59:47;101451.38;;;9.81;80.43
80188;BME280;73735;52.134;5.436;2024-02-21T12:02:15;101430.25;;;9.82;80.31
80188;BME280;73735;52.134;5.436;2024-02-21T12:04:42;101412.00;;;9.94;80.32
80188;BME280;73735;52.134;5.436;2024-02-21T12:07:10;101406.19;;;10.01;79.61
80188;BME280;73735;52.134;5.436;2024-02-21T12:09:36;101389.06;;;10.08;79.71
80188;BME280;73735;52.134;5.436;2024-02-21T12:12:06;101370.13;;;10.16;79.50
80188;BME280;73735;52.134;5.436;2024-02-21T12:14:34;101365.53;;;10.19;79.33
80188;BME280;73735;52.134;5.436;2024-02-21T12:17:02;101352.56;;;10.29;79.07
80188;BME280;73735;52.134;5.436;2024-02-21T12:19:32;101348.16;;;10.30;78.95
80188;BME280;73735;52.134;5.436;2024-02-21T12:21:59;101357.94;;;10.40;79.09
80188;BME280;73735;52.134;5.436;2024-02-21T12:24:27;101351.41;;;10.46;79.05
80188;BME280;73735;52.134;5.436;2024-02-21T12:26:55;101349.06;;;10.54;78.49
80188;BME280;73735;52.134;5.436;2024-02-21T12:29:23;101345.75;;;10.52;78.24
80188;BME280;73735;52.134;5.436;2024-02-21T12:31:51;101328.25;;;10.51;78.23
80188;BME280;73735;52.134;5.436;2024-02-21T12:34:18;101319.41;;;10.52;77.61
80188;BME280;73735;52.134;5.436;2024-02-21T12:36:56;101309.81;;;10.51;77.76
80188;BME280;73735;52.134;5.436;2024-02-21T12:39:23;101305.50;;;10.50;77.56
80188;BME280;73735;52.134;5.436;2024-02-21T12:41:49;101293.94;;;10.52;77.65
80188;BME280;73735;52.134;5.436;2024-02-21T12:44:16;101292.22;;;10.64;77.42
80188;BME280;73735;52.134;5.436;2024-02-21T12:46:44;101276.63;;;10.61;77.35
80188;BME280;73735;52.134;5.436;2024-02-21T12:49:11;101271.56;;;10.58;77.02
80188;BME280;73735;52.134;5.436;2024-02-21T12:51:38;101258.81;;;10.65;77.14
80188;BME280;73735;52.134;5.436;2024-02-21T12:54:05;101256.81;;;10.68;77.60
80188;BME280;73735;52.134;5.436;2024-02-21T12:56:32;101246.03;;;10.71;77.22
80188;BME280;73735;52.134;5.436;2024-02-21T12:58:58;101240.88;;;10.70;77.00
80188;BME280;73735;52.134;5.436;2024-02-21T13:01:25;101230.03;;;10.74;77.46
80188;BME280;73735;52.134;5.436;2024-02-21T13:03:52;101223.81;;;10.75;77.35
80188;BME280;73735;52.134;5.436;2024-02-21T13:06:20;101216.84;;;10.74;76.74
80188;BME280;73735;52.134;5.436;2024-02-21T13:08:47;101202.63;;;10.77;76.86